sensor_id;sensor_type;location;lat;lon;timestamp;P1;durP1;ratioP1;P2;durP2;ratioP2
78120;SDS011;67585;44.802;10.332;2024-03-23T00:53:33;12.25;;;2.63;;
78120;SDS011;67585;44.802;10.332;2024-03-23T00:55:59;10.13;;;2.33;;
78120;SDS011;67585;44.802;10.332;2024-03-23T00:58:24;13.13;;;2.28;;
78120;SDS011;67585;44.802;10.332;2024-03-23T01:00:50;7.68;;;2.35;;
78120;SDS011;67585;44.802;10.332;2024-03-23T01:03:15;9.70;;;3.10;;
78120;SDS011;67585;44.802;10.332;2024-03-23T01:05:43;8.60;;;2.15;;
78120;SDS011;67585;44.802;10.332;2024-03-23T01:08:10;8.75;;;2.03;;
78120;SDS011;67585;44.802;10.332;2024-03-23T01:10:35;9.85;;;2.88;;
78120;SDS011;67585;44.802;10.332;2024-03-23T01:13:00;8.50;;;2.40;;
78120;SDS011;67585;44.802;10.332;2024-03-23T01:15:26;6.95;;;1.85;;
78120;SDS011;67585;44.802;10.332;2024-03-23T01:17:51;10.70;;;2.65;;
78120;SDS011;67585;44.802;10.332;2024-03-23T01:20:16;9.07;;;2.03;;
78120;SDS011;67585;44.802;10.332;2024-03-23T01:22:42;6.43;;;1.52;;
78120;SDS011;67585;44.802;10.332;2024-03-23T01:25:07;7.63;;;2.15;;
78120;SDS011;67585;44.802;10.332;2024-03-23T01:27:33;9.60;;;3.33;;
78120;SDS011;67585;44.802;10.332;2024-03-23T01:29:59;8.77;;;2.03;;
78120;SDS011;67585;44.802;10.332;2024-03-23T01:32:24;8.50;;;2.35;;
78120;SDS011;67585;44.802;10.332;2024-03-23T01:34:50;8.20;;;2.17;;
78120;SDS011;67585;44.802;10.332;2024-03-23T01:37:15;6.57;;;1.58;;
78120;SDS011;67585;44.802;10.332;2024-03-23T01:39:40;12.15;;;1.95;;
78120;SDS011;67585;44.802;10.332;2024-03-23T01:42:06;7.25;;;2.13;;
78120;SDS011;67585;44.802;10.332;2024-03-23T01:44:31;7.55;;;1.50;;
78120;SDS011;67585;44.802;10.332;2024-03-23T01:46:57;7.40;;;1.42;;
78120;SDS011;67585;44.802;10.332;2024-03-23T01:49:22;7.07;;;1.80;;
78120;SDS011;67585;44.802;10.332;2024-03-23T01:51:47;8.20;;;1.70;;
78120;SDS011;67585;44.802;10.332;2024-03-23T01:54:13;6.50;;;1.45;;
78120;SDS011;67585;44.802;10.332;2024-03-23T01:56:39;5.03;;;1.25;;
78120;SDS011;67585;44.802;10.332;2024-03-23T01:59:05;7.43;;;1.17;;
78120;SDS011;67585;44.802;10.332;2024-03-23T02:01:31;6.25;;;1.67;;
78120;SDS011;67585;44.802;10.332;2024-03-23T02:03:57;5.78;;;1.67;;
78120;SDS011;67585;44.802;10.332;2024-03-23T02:06:23;6.40;;;1.83;;
78120;SDS011;67585;44.802;10.332;2024-03-23T02:08:50;7.68;;;2.05;;
78120;SDS011;67585;44.802;10.332;2024-03-23T02:11:16;6.70;;;1.20;;
78120;SDS011;67585;44.802;10.332;2024-03-23T02:13:41;6.95;;;1.75;;
78120;SDS011;67585;44.802;10.332;2024-03-23T02:16:06;7.70;;;1.50;;
78120;SDS011;67585;44.802;10.332;2024-03-23T02:18:32;6.10;;;1.58;;
78120;SDS011;67585;44.802;10.332;2024-03-23T02:20:58;7.13;;;1.92;;
78120;SDS011;67585;44.802;10.332;2024-03-23T02:23:24;6.82;;;1.38;;
78120;SDS011;67585;44.802;10.332;2024-03-23T02:25:49;7.25;;;1.88;;
78120;SDS011;67585;44.802;10.332;2024-03-23T02:28:15;7.07;;;1.33;;
78120;SDS011;67585;44.802;10.332;2024-03-23T02:30:42;7.00;;;1.40;;
78120;SDS011;67585;44.802;10.332;2024-03-23T02:33:07;8.63;;;1.83;;
78120;SDS011;67585;44.802;10.332;2024-03-23T02:35:33;7.50;;;1.73;;
78120;SDS011;67585;44.802;10.332;2024-03-23T02:37:58;6.72;;;1.30;;
78120;SDS011;67585;44.802;10.332;2024-03-23T02:40:24;5.93;;;1.40;;
78120;SDS011;67585;44.802;10.332;2024-03-23T02:42:49;7.95;;;1.75;;
78120;SDS011;67585;44.802;10.332;2024-03-23T02:45:15;6.20;;;1.13;;
78120;SDS011;67585;44.802;10.332;2024-03-23T02:47:40;6.40;;;0.95;;
78120;SDS011;67585;44.802;10.332;2024-03-23T02:50:06;6.45;;;0.85;;
78120;SDS011;67585;44.802;10.332;2024-03-23T02:52:32;6.45;;;0.98;;
78120;SDS011;67585;44.802;10.332;2024-03-23T02:54:57;6.28;;;0.73;;
78120;SDS011;67585;44.802;10.332;2024-03-23T02:57:23;7.32;;;1.17;;
78120;SDS011;67585;44.802;10.332;2024-03-23T02:59:48;6.63;;;1.13;;
78120;SDS011;67585;44.802;10.332;2024-03-23T03:02:15;5.10;;;1.25;;
78120;SDS011;67585;44.802;10.332;2024-03-23T03:04:41;6.35;;;1.00;;
78120;SDS011;67585;44.802;10.332;2024-03-23T03:07:06;6.78;;;0.80;;
78120;SDS011;67585;44.802;10.332;2024-03-23T03:09:32;4.45;;;0.90;;
78120;SDS011;67585;44.802;10.332;2024-03-23T03:11:58;5.05;;;0.65;;
78120;SDS011;67585;44.802;10.332;2024-03-23T03:14:23;5.53;;;1.52;;
78120;SDS011;67585;44.802;10.332;2024-03-23T03:16:49;6.57;;;1.10;;
78120;SDS011;67585;44.802;10.332;2024-03-23T03:19:14;5.75;;;0.80;;
78120;SDS011;67585;44.802;10.332;2024-03-23T03:21:41;5.47;;;1.02;;
78120;SDS011;67585;44.802;10.332;2024-03-23T03:24:07;4.22;;;1.08;;
78120;SDS011;67585;44.802;10.332;2024-03-23T03:26:32;4.65;;;0.95;;
78120;SDS011;67585;44.802;10.332;2024-03-23T03:28:58;4.05;;;0.70;;
78120;SDS011;67585;44.802;10.332;2024-03-23T03:31:23;4.25;;;1.20;;
78120;SDS011;67585;44.802;10.332;2024-03-23T03:33:49;5.25;;;0.75;;
78120;SDS011;67585;44.802;10.332;2024-03-23T03:36:16;4.32;;;0.85;;
78120;SDS011;67585;44.802;10.332;2024-03-23T03:38:41;4.75;;;0.73;;
78120;SDS011;67585;44.802;10.332;2024-03-23T03:41:07;7.63;;;0.95;;
78120;SDS011;67585;44.802;10.332;2024-03-23T03:43:32;5.07;;;1.00;;
78120;SDS011;67585;44.802;10.332;2024-03-23T03:45:58;4.30;;;0.40;;
78120;SDS011;67585;44.802;10.332;2024-03-23T03:48:24;4.75;;;0.98;;
78120;SDS011;67585;44.802;10.332;2024-03-23T03:50:50;5.47;;;0.40;;
78120;SDS011;67585;44.802;10.332;2024-03-23T03:53:15;3.95;;;0.43;;
78120;SDS011;67585;44.802;10.332;2024-03-23T03:55:41;5.35;;;0.57;;
78120;SDS011;67585;44.802;10.332;2024-03-23T03:58:06;3.50;;;0.43;;
78120;SDS011;67585;44.802;10.332;2024-03-23T04:00:32;3.60;;;0.40;;
78120;SDS011;67585;44.802;10.332;2024-03-23T04:02:57;3.13;;;0.30;;
78120;SDS011;67585;44.802;10.332;2024-03-23T04:05:23;6.32;;;0.88;;
78120;SDS011;67585;44.802;10.332;2024-03-23T04:07:49;5.15;;;0.65;;
78120;SDS011;67585;44.802;10.332;2024-03-23T04:10:14;3.47;;;0.65;;
78120;SDS011;67585;44.802;10.332;2024-03-23T04:12:40;5.88;;;1.67;;
78120;SDS011;67585;44.802;10.332;2024-03-23T04:15:06;4.35;;;0.95;;
78120;SDS011;67585;44.802;10.332;2024-03-23T04:17:31;6.05;;;1.25;;
78120;SDS011;67585;44.802;10.332;2024-03-23T04:22:24;8.73;;;1.45;;
78120;SDS011;67585;44.802;10.332;2024-03-23T04:24:51;4.80;;;1.13;;
78120;SDS011;67585;44.802;10.332;2024-03-23T04:27:20;5.60;;;1.48;;
78120;SDS011;67585;44.802;10.332;2024-03-23T04:29:49;5.45;;;1.13;;
78120;SDS011;67585;44.802;10.332;2024-03-23T04:32:15;7.65;;;1.33;;
78120;SDS011;67585;44.802;10.332;2024-03-23T04:34:42;4.72;;;0.57;;
78120;SDS011;67585;44.802;10.332;2024-03-23T04:37:08;7.43;;;0.73;;
78120;SDS011;67585;44.802;10.332;2024-03-23T04:39:33;6.93;;;0.70;;
78120;SDS011;67585;44.802;10.332;2024-03-23T04:41:59;3.78;;;1.02;;
78120;SDS011;67585;44.802;10.332;2024-03-23T04:44:24;5.85;;;0.68;;
78120;SDS011;67585;44.802;10.332;2024-03-23T04:46:50;4.80;;;0.43;;
78120;SDS011;67585;44.802;10.332;2024-03-23T04:49:15;6.35;;;0.63;;
78120;SDS011;67585;44.802;10.332;2024-03-23T04:51:40;7.82;;;1.00;;
78120;SDS011;67585;44.802;10.332;2024-03-23T04:54:11;7.57;;;1.25;;
78120;SDS011;67585;44.802;10.332;2024-03-23T04:56:39;4.25;;;0.77;;
78120;SDS011;67585;44.802;10.332;2024-03-23T04:59:04;5.70;;;1.50;;
78120;SDS011;67585;44.802;10.332;2024-03-23T05:01:33;6.60;;;1.05;;
78120;SDS011;67585;44.802;10.332;2024-03-23T05:03:58;4.90;;;1.13;;
78120;SDS011;67585;44.802;10.332;2024-03-23T05:06:24;7.82;;;1.50;;
78120;SDS011;67585;44.802;10.332;2024-03-23T05:08:50;7.60;;;1.83;;
78120;SDS011;67585;44.802;10.332;2024-03-23T05:11:16;6.55;;;1.30;;
78120;SDS011;67585;44.802;10.332;2024-03-23T05:13:42;4.38;;;0.80;;
78120;SDS011;67585;44.802;10.332;2024-03-23T05:16:07;5.10;;;1.05;;
78120;SDS011;67585;44.802;10.332;2024-03-23T05:18:33;6.13;;;1.15;;
78120;SDS011;67585;44.802;10.332;2024-03-23T05:20:59;5.07;;;0.73;;
78120;SDS011;67585;44.802;10.332;2024-03-23T05:23:25;5.93;;;1.33;;
78120;SDS011;67585;44.802;10.332;2024-03-23T05:25:51;6.75;;;0.98;;
78120;SDS011;67585;44.802;10.332;2024-03-23T05:28:17;9.23;;;2.17;;
78120;SDS011;67585;44.802;10.332;2024-03-23T05:30:43;14.43;;;2.97;;
78120;SDS011;67585;44.802;10.332;2024-03-23T05:33:08;13.73;;;2.92;;
78120;SDS011;67585;44.802;10.332;2024-03-23T05:35:34;14.20;;;4.40;;
78120;SDS011;67585;44.802;10.332;2024-03-23T05:37:59;14.68;;;4.80;;
78120;SDS011;67585;44.802;10.332;2024-03-23T05:40:26;13.55;;;3.92;;
78120;SDS011;67585;44.802;10.332;2024-03-23T05:42:52;20.08;;;5.55;;
78120;SDS011;67585;44.802;10.332;2024-03-23T05:45:23;15.40;;;5.03;;
78120;SDS011;67585;44.802;10.332;2024-03-23T05:47:48;12.95;;;4.30;;
78120;SDS011;67585;44.802;10.332;2024-03-23T05:50:14;9.85;;;3.17;;
78120;SDS011;67585;44.802;10.332;2024-03-23T05:52:40;8.50;;;2.15;;
78120;SDS011;67585;44.802;10.332;2024-03-23T05:55:05;9.60;;;2.15;;
78120;SDS011;67585;44.802;10.332;2024-03-23T05:57:31;7.10;;;1.40;;
78120;SDS011;67585;44.802;10.332;2024-03-23T05:59:57;5.07;;;0.77;;
78120;SDS011;67585;44.802;10.332;2024-03-23T06:02:23;6.80;;;1.63;;
78120;SDS011;67585;44.802;10.332;2024-03-23T06:04:49;6.20;;;0.47;;
78120;SDS011;67585;44.802;10.332;2024-03-23T06:07:14;6.13;;;0.88;;
78120;SDS011;67585;44.802;10.332;2024-03-23T06:09:40;11.45;;;1.63;;
78120;SDS011;67585;44.802;10.332;2024-03-23T06:12:06;5.78;;;1.20;;
78120;SDS011;67585;44.802;10.332;2024-03-23T06:14:32;6.60;;;1.13;;
78120;SDS011;67585;44.802;10.332;2024-03-23T06:16:58;6.82;;;1.27;;
78120;SDS011;67585;44.802;10.332;2024-03-23T06:19:24;4.68;;;0.90;;
78120;SDS011;67585;44.802;10.332;2024-03-23T06:21:52;6.00;;;1.73;;
78120;SDS011;67585;44.802;10.332;2024-03-23T06:24:17;6.18;;;1.80;;
78120;SDS011;67585;44.802;10.332;2024-03-23T06:26:43;9.27;;;1.70;;
78120;SDS011;67585;44.802;10.332;2024-03-23T06:29:08;6.55;;;1.65;;
78120;SDS011;67585;44.802;10.332;2024-03-23T06:31:34;6.53;;;1.45;;
78120;SDS011;67585;44.802;10.332;2024-03-23T06:33:59;14.63;;;2.15;;
78120;SDS011;67585;44.802;10.332;2024-03-23T06:36:26;8.25;;;2.25;;
78120;SDS011;67585;44.802;10.332;2024-03-23T06:38:52;7.80;;;1.83;;
78120;SDS011;67585;44.802;10.332;2024-03-23T06:41:19;10.75;;;2.13;;
78120;SDS011;67585;44.802;10.332;2024-03-23T06:43:44;8.73;;;1.58;;
78120;SDS011;67585;44.802;10.332;2024-03-23T06:46:10;14.65;;;3.38;;
78120;SDS011;67585;44.802;10.332;2024-03-23T06:48:35;14.57;;;4.63;;
78120;SDS011;67585;44.802;10.332;2024-03-23T06:51:01;18.15;;;4.88;;
78120;SDS011;67585;44.802;10.332;2024-03-23T06:53:26;17.23;;;5.95;;
78120;SDS011;67585;44.802;10.332;2024-03-23T06:55:52;15.45;;;4.35;;
78120;SDS011;67585;44.802;10.332;2024-03-23T06:58:21;12.13;;;3.35;;
78120;SDS011;67585;44.802;10.332;2024-03-23T07:00:48;14.45;;;4.28;;
78120;SDS011;67585;44.802;10.332;2024-03-23T07:03:14;16.83;;;3.95;;
78120;SDS011;67585;44.802;10.332;2024-03-23T07:05:40;14.07;;;4.30;;
78120;SDS011;67585;44.802;10.332;2024-03-23T07:08:06;15.02;;;3.92;;
78120;SDS011;67585;44.802;10.332;2024-03-23T07:10:35;13.73;;;3.60;;
78120;SDS011;67585;44.802;10.332;2024-03-23T07:13:04;11.52;;;3.38;;
78120;SDS011;67585;44.802;10.332;2024-03-23T07:15:29;14.75;;;3.63;;
78120;SDS011;67585;44.802;10.332;2024-03-23T07:17:54;14.40;;;4.40;;
78120;SDS011;67585;44.802;10.332;2024-03-23T07:20:20;10.18;;;2.45;;
78120;SDS011;67585;44.802;10.332;2024-03-23T07:22:45;8.25;;;1.27;;
78120;SDS011;67585;44.802;10.332;2024-03-23T07:25:12;7.75;;;1.85;;
78120;SDS011;67585;44.802;10.332;2024-03-23T07:27:43;11.07;;;0.98;;
78120;SDS011;67585;44.802;10.332;2024-03-23T07:30:08;4.07;;;0.63;;
78120;SDS011;67585;44.802;10.332;2024-03-23T07:32:34;5.55;;;1.17;;
78120;SDS011;67585;44.802;10.332;2024-03-23T07:35:00;6.20;;;1.45;;
78120;SDS011;67585;44.802;10.332;2024-03-23T07:37:26;7.97;;;0.80;;
78120;SDS011;67585;44.802;10.332;2024-03-23T07:39:51;4.95;;;0.90;;
78120;SDS011;67585;44.802;10.332;2024-03-23T07:42:17;9.10;;;0.98;;
78120;SDS011;67585;44.802;10.332;2024-03-23T07:44:45;5.35;;;0.88;;
78120;SDS011;67585;44.802;10.332;2024-03-23T07:47:11;3.00;;;0.35;;
78120;SDS011;67585;44.802;10.332;2024-03-23T07:49:40;6.32;;;0.82;;
78120;SDS011;67585;44.802;10.332;2024-03-23T07:52:05;4.40;;;0.52;;
78120;SDS011;67585;44.802;10.332;2024-03-23T07:54:31;4.03;;;0.40;;
78120;SDS011;67585;44.802;10.332;2024-03-23T07:56:56;2.60;;;0.30;;
78120;SDS011;67585;44.802;10.332;2024-03-23T07:59:22;4.68;;;0.25;;
78120;SDS011;67585;44.802;10.332;2024-03-23T08:01:47;5.43;;;0.30;;
78120;SDS011;67585;44.802;10.332;2024-03-23T08:04:13;4.10;;;0.43;;
78120;SDS011;67585;44.802;10.332;2024-03-23T08:06:38;3.95;;;0.45;;
78120;SDS011;67585;44.802;10.332;2024-03-23T08:09:04;2.83;;;0.40;;
78120;SDS011;67585;44.802;10.332;2024-03-23T08:11:29;4.53;;;0.30;;
78120;SDS011;67585;44.802;10.332;2024-03-23T08:13:55;4.18;;;0.32;;
78120;SDS011;67585;44.802;10.332;2024-03-23T08:16:21;3.13;;;0.20;;
78120;SDS011;67585;44.802;10.332;2024-03-23T08:18:47;3.88;;;0.30;;
78120;SDS011;67585;44.802;10.332;2024-03-23T08:21:12;3.67;;;0.17;;
78120;SDS011;67585;44.802;10.332;2024-03-23T08:23:38;2.20;;;0.30;;
78120;SDS011;67585;44.802;10.332;2024-03-23T08:26:08;3.05;;;0.20;;
78120;SDS011;67585;44.802;10.332;2024-03-23T08:28:35;2.05;;;0.30;;
78120;SDS011;67585;44.802;10.332;2024-03-23T08:31:02;2.03;;;0.10;;
78120;SDS011;67585;44.802;10.332;2024-03-23T08:33:28;3.50;;;0.40;;
78120;SDS011;67585;44.802;10.332;2024-03-23T08:36:16;3.05;;;0.10;;
78120;SDS011;67585;44.802;10.332;2024-03-23T08:38:41;1.90;;;0.13;;
78120;SDS011;67585;44.802;10.332;2024-03-23T08:41:07;2.75;;;0.10;;
78120;SDS011;67585;44.802;10.332;2024-03-23T08:43:37;3.38;;;0.50;;
78120;SDS011;67585;44.802;10.332;2024-03-23T08:46:05;5.45;;;0.95;;
78120;SDS011;67585;44.802;10.332;2024-03-23T08:48:37;4.40;;;0.98;;
78120;SDS011;67585;44.802;10.332;2024-03-23T08:51:04;7.72;;;1.50;;
78120;SDS011;67585;44.802;10.332;2024-03-23T08:53:31;5.70;;;0.80;;
78120;SDS011;67585;44.802;10.332;2024-03-23T08:55:58;8.27;;;1.15;;
78120;SDS011;67585;44.802;10.332;2024-03-23T08:58:24;7.55;;;1.95;;
78120;SDS011;67585;44.802;10.332;2024-03-23T09:00:51;7.00;;;1.45;;
78120;SDS011;67585;44.802;10.332;2024-03-23T09:03:17;13.75;;;5.18;;
78120;SDS011;67585;44.802;10.332;2024-03-23T09:05:43;14.52;;;4.53;;
78120;SDS011;67585;44.802;10.332;2024-03-23T09:08:08;19.63;;;6.30;;
78120;SDS011;67585;44.802;10.332;2024-03-23T09:10:40;17.98;;;6.75;;
78120;SDS011;67585;44.802;10.332;2024-03-23T09:13:06;22.83;;;8.05;;
78120;SDS011;67585;44.802;10.332;2024-03-23T09:15:35;22.13;;;7.32;;
78120;SDS011;67585;44.802;10.332;2024-03-23T09:18:02;22.15;;;7.82;;
78120;SDS011;67585;44.802;10.332;2024-03-23T09:20:28;25.00;;;8.40;;
78120;SDS011;67585;44.802;10.332;2024-03-23T09:22:54;26.25;;;10.18;;
78120;SDS011;67585;44.802;10.332;2024-03-23T09:25:19;28.52;;;10.15;;
78120;SDS011;67585;44.802;10.332;2024-03-23T09:27:48;31.98;;;10.05;;
78120;SDS011;67585;44.802;10.332;2024-03-23T09:30:14;31.10;;;11.45;;
78120;SDS011;67585;44.802;10.332;2024-03-23T09:32:46;32.95;;;12.20;;
78120;SDS011;67585;44.802;10.332;2024-03-23T09:35:11;24.33;;;9.23;;
78120;SDS011;67585;44.802;10.332;2024-03-23T09:37:38;26.70;;;10.55;;
78120;SDS011;67585;44.802;10.332;2024-03-23T09:40:05;25.85;;;9.95;;
78120;SDS011;67585;44.802;10.332;2024-03-23T09:42:34;26.10;;;10.40;;
78120;SDS011;67585;44.802;10.332;2024-03-23T09:44:59;31.73;;;11.90;;
78120;SDS011;67585;44.802;10.332;2024-03-23T09:47:26;31.73;;;12.60;;
78120;SDS011;67585;44.802;10.332;2024-03-23T09:49:52;28.95;;;11.27;;
78120;SDS011;67585;44.802;10.332;2024-03-23T09:52:17;30.15;;;11.27;;
78120;SDS011;67585;44.802;10.332;2024-03-23T09:54:43;30.45;;;12.23;;
78120;SDS011;67585;44.802;10.332;2024-03-23T09:57:08;30.27;;;13.18;;
78120;SDS011;67585;44.802;10.332;2024-03-23T09:59:34;30.63;;;12.75;;
78120;SDS011;67585;44.802;10.332;2024-03-23T10:02:00;46.70;;;12.50;;
78120;SDS011;67585;44.802;10.332;2024-03-23T10:04:39;35.30;;;12.73;;
78120;SDS011;67585;44.802;10.332;2024-03-23T10:07:12;29.00;;;12.52;;
78120;SDS011;67585;44.802;10.332;2024-03-23T10:09:38;36.13;;;13.07;;
78120;SDS011;67585;44.802;10.332;2024-03-23T10:12:08;34.00;;;13.40;;
78120;SDS011;67585;44.802;10.332;2024-03-23T10:14:34;40.92;;;15.57;;
78120;SDS011;67585;44.802;10.332;2024-03-23T10:17:11;36.30;;;13.07;;
78120;SDS011;67585;44.802;10.332;2024-03-23T10:19:42;31.45;;;12.88;;
78120;SDS011;67585;44.802;10.332;2024-03-23T10:22:19;32.17;;;12.48;;
78120;SDS011;67585;44.802;10.332;2024-03-23T10:24:45;37.63;;;13.90;;
78120;SDS011;67585;44.802;10.332;2024-03-23T10:27:22;29.45;;;11.48;;
78120;SDS011;67585;44.802;10.332;2024-03-23T10:29:48;32.60;;;13.40;;
78120;SDS011;67585;44.802;10.332;2024-03-23T10:32:14;33.30;;;13.85;;
78120;SDS011;67585;44.802;10.332;2024-03-23T10:37:07;29.33;;;12.82;;
78120;SDS011;67585;44.802;10.332;2024-03-23T10:39:33;34.45;;;13.10;;
78120;SDS011;67585;44.802;10.332;2024-03-23T10:42:01;31.23;;;11.55;;
78120;SDS011;67585;44.802;10.332;2024-03-23T10:44:31;35.63;;;12.18;;
78120;SDS011;67585;44.802;10.332;2024-03-23T10:46:57;30.30;;;10.75;;
78120;SDS011;67585;44.802;10.332;2024-03-23T10:49:30;29.02;;;11.27;;
78120;SDS011;67585;44.802;10.332;2024-03-23T10:51:57;30.27;;;11.10;;
78120;SDS011;67585;44.802;10.332;2024-03-23T10:54:24;27.02;;;11.57;;
78120;SDS011;67585;44.802;10.332;2024-03-23T10:56:50;29.85;;;12.35;;
78120;SDS011;67585;44.802;10.332;2024-03-23T10:59:21;31.42;;;11.55;;
78120;SDS011;67585;44.802;10.332;2024-03-23T11:01:56;28.65;;;10.93;;
78120;SDS011;67585;44.802;10.332;2024-03-23T11:04:41;29.40;;;11.32;;
78120;SDS011;67585;44.802;10.332;2024-03-23T11:09:55;27.52;;;10.60;;
78120;SDS011;67585;44.802;10.332;2024-03-23T11:14:57;29.73;;;10.85;;
78120;SDS011;67585;44.802;10.332;2024-03-23T11:17:36;28.35;;;10.65;;
78120;SDS011;67585;44.802;10.332;2024-03-23T11:20:15;24.30;;;9.55;;
78120;SDS011;67585;44.802;10.332;2024-03-23T11:22:57;9.07;;;1.10;;
78120;SDS011;67585;44.802;10.332;2024-03-23T11:25:23;4.30;;;0.30;;
78120;SDS011;67585;44.802;10.332;2024-03-23T11:27:50;5.88;;;0.60;;
78120;SDS011;67585;44.802;10.332;2024-03-23T11:30:20;4.88;;;1.05;;
78120;SDS011;67585;44.802;10.332;2024-03-23T11:32:51;5.13;;;0.30;;
78120;SDS011;67585;44.802;10.332;2024-03-23T11:35:39;5.10;;;0.75;;
78120;SDS011;67585;44.802;10.332;2024-03-23T11:38:12;5.75;;;0.52;;
78120;SDS011;67585;44.802;10.332;2024-03-23T11:40:46;8.13;;;0.80;;
78120;SDS011;67585;44.802;10.332;2024-03-23T11:43:19;3.75;;;0.70;;
78120;SDS011;67585;44.802;10.332;2024-03-23T11:45:49;5.22;;;0.25;;
78120;SDS011;67585;44.802;10.332;2024-03-23T11:48:21;4.43;;;0.30;;
78120;SDS011;67585;44.802;10.332;2024-03-23T11:50:48;6.65;;;0.20;;
78120;SDS011;67585;44.802;10.332;2024-03-23T11:53:16;4.57;;;0.43;;
78120;SDS011;67585;44.802;10.332;2024-03-23T11:55:43;1.55;;;0.25;;
78120;SDS011;67585;44.802;10.332;2024-03-23T11:58:12;4.80;;;0.40;;
78120;SDS011;67585;44.802;10.332;2024-03-23T12:00:38;5.68;;;0.20;;
78120;SDS011;67585;44.802;10.332;2024-03-23T12:03:04;3.35;;;0.20;;
78120;SDS011;67585;44.802;10.332;2024-03-23T12:05:33;5.25;;;0.30;;
78120;SDS011;67585;44.802;10.332;2024-03-23T12:08:15;5.15;;;0.50;;
78120;SDS011;67585;44.802;10.332;2024-03-23T12:10:50;7.03;;;0.10;;
78120;SDS011;67585;44.802;10.332;2024-03-23T12:13:20;4.63;;;0.15;;
78120;SDS011;67585;44.802;10.332;2024-03-23T12:15:48;3.47;;;0.30;;
78120;SDS011;67585;44.802;10.332;2024-03-23T12:18:15;4.53;;;0.35;;
78120;SDS011;67585;44.802;10.332;2024-03-23T12:20:41;6.40;;;0.50;;
78120;SDS011;67585;44.802;10.332;2024-03-23T12:23:07;6.07;;;0.40;;
78120;SDS011;67585;44.802;10.332;2024-03-23T12:25:34;3.15;;;0.38;;
78120;SDS011;67585;44.802;10.332;2024-03-23T12:28:00;2.00;;;0.10;;
78120;SDS011;67585;44.802;10.332;2024-03-23T12:30:25;2.55;;;0.20;;
78120;SDS011;67585;44.802;10.332;2024-03-23T12:32:51;3.40;;;0.10;;
78120;SDS011;67585;44.802;10.332;2024-03-23T12:35:16;4.00;;;0.10;;
78120;SDS011;67585;44.802;10.332;2024-03-23T12:37:42;3.88;;;0.22;;
78120;SDS011;67585;44.802;10.332;2024-03-23T12:40:08;5.32;;;0.15;;
78120;SDS011;67585;44.802;10.332;2024-03-23T12:42:34;6.38;;;0.20;;
78120;SDS011;67585;44.802;10.332;2024-03-23T12:44:59;3.92;;;0.43;;
78120;SDS011;67585;44.802;10.332;2024-03-23T12:47:25;4.13;;;0.57;;
78120;SDS011;67585;44.802;10.332;2024-03-23T12:49:50;5.35;;;0.20;;
78120;SDS011;67585;44.802;10.332;2024-03-23T12:52:17;5.10;;;0.38;;
78120;SDS011;67585;44.802;10.332;2024-03-23T12:54:42;5.47;;;0.10;;
78120;SDS011;67585;44.802;10.332;2024-03-23T12:57:08;3.40;;;0.30;;
78120;SDS011;67585;44.802;10.332;2024-03-23T12:59:33;5.00;;;0.10;;
78120;SDS011;67585;44.802;10.332;2024-03-23T13:02:00;1.48;;;0.10;;
78120;SDS011;67585;44.802;10.332;2024-03-23T13:04:26;1.75;;;0.25;;
78120;SDS011;67585;44.802;10.332;2024-03-23T13:06:51;1.60;;;0.50;;
78120;SDS011;67585;44.802;10.332;2024-03-23T13:09:16;4.53;;;0.20;;
78120;SDS011;67585;44.802;10.332;2024-03-23T13:11:42;3.60;;;0.10;;
78120;SDS011;67585;44.802;10.332;2024-03-23T13:14:07;2.67;;;0.00;;
78120;SDS011;67585;44.802;10.332;2024-03-23T13:16:33;2.13;;;0.10;;
78120;SDS011;67585;44.802;10.332;2024-03-23T13:18:58;4.47;;;0.30;;
78120;SDS011;67585;44.802;10.332;2024-03-23T13:21:23;2.53;;;0.20;;
78120;SDS011;67585;44.802;10.332;2024-03-23T13:23:49;3.22;;;0.30;;
78120;SDS011;67585;44.802;10.332;2024-03-23T13:26:16;4.63;;;0.05;;
78120;SDS011;67585;44.802;10.332;2024-03-23T13:28:41;1.40;;;0.05;;
78120;SDS011;67585;44.802;10.332;2024-03-23T13:31:07;1.83;;;0.10;;
78120;SDS011;67585;44.802;10.332;2024-03-23T13:33:35;2.55;;;0.10;;
78120;SDS011;67585;44.802;10.332;2024-03-23T13:36:01;1.05;;;0.10;;
78120;SDS011;67585;44.802;10.332;2024-03-23T13:38:28;7.28;;;0.20;;
78120;SDS011;67585;44.802;10.332;2024-03-23T13:40:54;2.92;;;0.20;;
78120;SDS011;67585;44.802;10.332;2024-03-23T13:43:24;2.13;;;0.25;;
78120;SDS011;67585;44.802;10.332;2024-03-23T13:45:54;2.42;;;0.10;;
78120;SDS011;67585;44.802;10.332;2024-03-23T13:48:22;3.45;;;0.10;;
78120;SDS011;67585;44.802;10.332;2024-03-23T13:51:01;3.60;;;0.10;;
78120;SDS011;67585;44.802;10.332;2024-03-23T13:53:30;6.00;;;0.17;;
78120;SDS011;67585;44.802;10.332;2024-03-23T13:55:58;3.63;;;0.20;;
78120;SDS011;67585;44.802;10.332;2024-03-23T13:58:38;2.85;;;0.08;;
78120;SDS011;67585;44.802;10.332;2024-03-23T14:01:10;1.27;;;0.20;;
78120;SDS011;67585;44.802;10.332;2024-03-23T14:03:36;5.55;;;0.03;;
78120;SDS011;67585;44.802;10.332;2024-03-23T14:06:01;4.95;;;0.10;;
78120;SDS011;67585;44.802;10.332;2024-03-23T14:08:28;4.45;;;0.10;;
78120;SDS011;67585;44.802;10.332;2024-03-23T14:10:53;5.90;;;0.15;;
78120;SDS011;67585;44.802;10.332;2024-03-23T14:13:19;3.55;;;0.63;;
78120;SDS011;67585;44.802;10.332;2024-03-23T14:15:45;1.05;;;0.03;;
78120;SDS011;67585;44.802;10.332;2024-03-23T14:18:10;8.55;;;0.20;;
78120;SDS011;67585;44.802;10.332;2024-03-23T14:20:36;5.63;;;0.25;;
78120;SDS011;67585;44.802;10.332;2024-03-23T14:23:01;5.97;;;0.17;;
78120;SDS011;67585;44.802;10.332;2024-03-23T14:25:26;8.90;;;0.30;;
78120;SDS011;67585;44.802;10.332;2024-03-23T14:27:54;6.57;;;0.10;;
78120;SDS011;67585;44.802;10.332;2024-03-23T14:30:20;8.98;;;0.08;;
78120;SDS011;67585;44.802;10.332;2024-03-23T14:32:45;5.50;;;0.03;;
78120;SDS011;67585;44.802;10.332;2024-03-23T14:35:10;5.95;;;0.20;;
78120;SDS011;67585;44.802;10.332;2024-03-23T14:37:37;6.38;;;0.20;;
78120;SDS011;67585;44.802;10.332;2024-03-23T14:40:03;7.50;;;0.10;;
78120;SDS011;67585;44.802;10.332;2024-03-23T14:42:29;3.50;;;0.10;;
78120;SDS011;67585;44.802;10.332;2024-03-23T14:44:56;2.65;;;0.00;;
78120;SDS011;67585;44.802;10.332;2024-03-23T14:47:21;1.75;;;0.10;;
78120;SDS011;67585;44.802;10.332;2024-03-23T14:49:46;1.65;;;0.00;;
78120;SDS011;67585;44.802;10.332;2024-03-23T14:52:15;5.47;;;0.47;;
78120;SDS011;67585;44.802;10.332;2024-03-23T14:54:40;20.20;;;0.75;;
78120;SDS011;67585;44.802;10.332;2024-03-23T14:57:06;4.95;;;0.25;;
78120;SDS011;67585;44.802;10.332;2024-03-23T14:59:35;4.03;;;0.10;;
78120;SDS011;67585;44.802;10.332;2024-03-23T15:02:00;4.38;;;0.10;;
78120;SDS011;67585;44.802;10.332;2024-03-23T15:04:26;2.17;;;0.00;;
78120;SDS011;67585;44.802;10.332;2024-03-23T15:06:51;2.60;;;0.10;;
78120;SDS011;67585;44.802;10.332;2024-03-23T15:09:17;1.35;;;0.10;;
78120;SDS011;67585;44.802;10.332;2024-03-23T15:11:43;1.58;;;0.20;;
78120;SDS011;67585;44.802;10.332;2024-03-23T15:14:08;3.30;;;0.50;;
78120;SDS011;67585;44.802;10.332;2024-03-23T15:16:35;3.38;;;0.20;;
78120;SDS011;67585;44.802;10.332;2024-03-23T15:19:01;4.32;;;0.00;;
78120;SDS011;67585;44.802;10.332;2024-03-23T15:21:26;0.30;;;0.00;;
78120;SDS011;67585;44.802;10.332;2024-03-23T15:23:51;7.13;;;0.00;;
78120;SDS011;67585;44.802;10.332;2024-03-23T15:26:17;1.67;;;0.00;;
78120;SDS011;67585;44.802;10.332;2024-03-23T15:28:42;1.40;;;0.32;;
78120;SDS011;67585;44.802;10.332;2024-03-23T15:31:23;0.75;;;0.00;;